Time;durP1;ratioP1;P1;durP2;ratioP2;P2;SDS_P1;SDS_P2;PMS_P1;PMS_P2;Temp;Humidity;BMP_temperature;BMP_pressure;BME280_temperature;BME280_humidity;BME280_pressure;Samples;Min_cycle;Max_cycle;Signal;HPM_P1;HPM_P2
2022/11/07 00:02:18;;;;;;;17.15;7.55;;;;;;;14.33;100.00;100676.91;4989357;28;20101;-74
2022/11/07 00:04:43;;;;;;;20.58;7.68;;;;;;;14.34;100.00;100673.47;4991174;28;20034;-74
2022/11/07 00:07:09;;;;;;;12.50;6.80;;;;;;;14.38;100.00;100685.69;4988436;28;20030;-74
2022/11/07 00:09:35;;;;;;;17.48;6.88;;;;;;;14.44;100.00;100686.69;4988975;28;20034;-74
2022/11/07 00:12:00;;;;;;;18.73;7.15;;;;;;;14.46;100.00;100692.81;5025140;28;20076;-74
2022/11/07 00:14:26;;;;;;;17.95;6.53;;;;;;;14.49;100.00;100691.16;5026568;28;20037;-74
2022/11/07 00:16:52;;;;;;;17.27;7.22;;;;;;;14.53;100.00;100695.59;5010180;28;20587;-74
2022/11/07 00:19:19;;;;;;;20.20;7.28;;;;;;;14.57;100.00;100704.34;5026785;28;20112;-74
2022/11/07 00:21:45;;;;;;;13.90;6.72;;;;;;;14.40;100.00;100667.53;5026500;28;20494;-74
2022/11/07 00:24:16;;;;;;;15.85;6.90;;;;;;;14.50;100.00;100694.63;5026710;28;20029;-74
2022/11/07 00:26:43;;;;;;;11.73;6.75;;;;;;;14.60;100.00;100700.94;5026454;28;20049;-73
2022/11/07 00:29:13;;;;;;;16.48;6.55;;;;;;;14.66;100.00;100701.97;5026501;28;20094;-74
2022/11/07 00:31:38;;;;;;;19.85;6.70;;;;;;;14.63;100.00;100695.78;5026445;28;20120;-74
2022/11/07 00:34:04;;;;;;;20.33;7.00;;;;;;;14.63;100.00;100703.59;5026278;28;20120;-74
2022/11/07 00:36:29;;;;;;;15.82;6.45;;;;;;;14.55;100.00;100688.72;5026414;28;20075;-73
2022/11/07 00:38:55;;;;;;;13.90;6.22;;;;;;;14.67;100.00;100698.53;5026408;28;20086;-74
2022/11/07 00:41:22;;;;;;;16.63;7.00;;;;;;;14.63;100.00;100694.09;5026200;28;20061;-74
2022/11/07 00:43:47;;;;;;;18.65;7.38;;;;;;;14.63;100.00;100699.28;4995753;28;20042;-74
2022/11/07 00:46:15;;;;;;;21.15;7.47;;;;;;;14.60;100.00;100703.53;4989469;28;20030;-74
2022/11/07 00:48:41;;;;;;;15.02;6.68;;;;;;;14.61;100.00;100706.16;4989774;28;20027;-74
2022/11/07 00:51:11;;;;;;;15.23;8.18;;;;;;;14.64;100.00;100705.34;5004356;28;20415;-74
2022/11/07 00:53:37;;;;;;;20.13;7.07;;;;;;;14.56;100.00;100693.03;5004653;28;20109;-74
2022/11/07 00:56:07;;;;;;;14.90;7.22;;;;;;;14.62;100.00;100712.25;4989414;28;20567;-74
2022/11/07 00:58:33;;;;;;;14.93;7.72;;;;;;;14.63;100.00;100709.69;5004671;28;20450;-74
2022/11/07 01:01:05;;;;;;;17.30;7.53;;;;;;;14.60;100.00;100708.72;4989312;28;20498;-74
2022/11/07 01:06:15;;;;;;;15.57;6.70;;;;;;;14.47;100.00;100681.59;4989561;28;20215;-74
2022/11/07 01:08:40;;;;;;;17.20;7.00;;;;;;;14.59;100.00;100704.38;4989322;28;20109;-74
2022/11/07 01:11:06;;;;;;;16.27;6.63;;;;;;;14.59;100.00;100712.16;4989116;28;20026;-74
2022/11/07 01:13:32;;;;;;;12.43;7.30;;;;;;;14.56;100.00;100702.56;4989059;28;20033;-74
2022/11/07 01:15:58;;;;;;;20.27;7.70;;;;;;;14.51;100.00;100706.78;4989237;28;20079;-74
2022/11/07 01:18:24;;;;;;;13.15;7.25;;;;;;;14.58;100.00;100711.28;5020763;28;20026;-74
2022/11/07 01:20:49;;;;;;;18.70;7.90;;;;;;;14.51;100.00;100691.19;5004410;28;20087;-74
2022/11/07 01:23:16;;;;;;;17.83;7.47;;;;;;;14.56;100.00;100707.78;4990941;28;20030;-74
2022/11/07 01:25:41;;;;;;;14.32;6.40;;;;;;;14.29;100.00;100663.81;5008818;28;20033;-74
2022/11/07 01:28:10;;;;;;;20.98;8.07;;;;;;;14.51;100.00;100706.78;5006177;28;20416;-75
2022/11/07 01:30:43;;;;;;;16.95;7.40;;;;;;;14.60;100.00;100726.91;5004485;28;20051;-75
2022/11/07 01:33:09;;;;;;;17.98;7.47;;;;;;;14.39;100.00;100682.25;5006001;28;20084;-74
2022/11/07 01:35:35;;;;;;;12.93;6.88;;;;;;;14.56;100.00;100719.03;5008118;28;20053;-75
2022/11/07 01:38:01;;;;;;;15.38;7.28;;;;;;;14.52;100.00;100703.34;5008096;28;20072;-75
2022/11/07 01:40:26;;;;;;;19.00;7.22;;;;;;;14.54;100.00;100710.34;5007863;28;20050;-76
2022/11/07 01:42:53;;;;;;;18.90;7.68;;;;;;;14.58;100.00;100713.91;5007796;28;20030;-75
2022/11/07 01:45:32;;;;;;;20.65;7.93;;;;;;;14.60;100.00;100717.38;5007000;28;20180;-75
2022/11/07 01:48:01;;;;;;;14.65;7.13;;;;;;;14.48;100.00;100707.59;5006681;28;20075;-75
2022/11/07 01:50:27;;;;;;;19.73;8.05;;;;;;;14.46;100.00;100711.84;5007965;28;20112;-75
2022/11/07 01:52:54;;;;;;;16.42;7.78;;;;;;;14.60;100.00;100713.91;5007360;28;20585;-75
2022/11/07 01:55:25;;;;;;;13.55;7.28;;;;;;;14.58;100.00;100716.50;5007314;28;20026;-75
2022/11/07 01:58:07;;;;;;;14.25;7.13;;;;;;;14.55;100.00;100714.69;5007615;28;20032;-80
2022/11/07 02:00:34;;;;;;;16.17;7.90;;;;;;;14.59;100.00;100720.81;5005017;28;20163;-73
2022/11/07 02:03:06;;;;;;;17.67;7.63;;;;;;;14.53;100.00;100716.38;5005968;28;20034;-77
2022/11/07 02:05:37;;;;;;;15.30;7.22;;;;;;;14.52;100.00;100716.34;5000122;28;20480;-77
2022/11/07 02:08:05;;;;;;;20.55;7.75;;;;;;;14.59;100.00;100719.94;5005392;28;20042;-77
2022/11/07 02:10:34;;;;;;;13.93;7.03;;;;;;;13.91;100.00;100613.53;5006805;28;20529;-78
2022/11/07 02:13:01;;;;;;;16.58;7.28;;;;;;;14.54;100.00;100712.03;5007544;28;20126;-78
2022/11/07 02:15:27;;;;;;;14.23;7.18;;;;;;;14.57;100.00;100722.53;5004983;28;20038;-78
2022/11/07 02:17:53;;;;;;;15.05;7.47;;;;;;;14.50;100.00;100705.88;5007359;28;20022;-78
2022/11/07 02:20:19;;;;;;;12.88;7.25;;;;;;;14.63;100.00;100721.78;4993869;28;20034;-70
2022/11/07 02:22:55;;;;;;;15.63;6.97;;;;;;;14.59;100.00;100719.94;5007157;28;20029;-74
2022/11/07 02:25:21;;;;;;;17.13;8.10;;;;;;;14.53;100.00;100720.69;5000054;28;20117;-73
2022/11/07 02:27:52;;;;;;;12.90;6.97;;;;;;;14.53;100.00;100716.38;5007129;28;20109;-73
2022/11/07 02:30:21;;;;;;;14.98;7.60;;;;;;;14.46;100.00;100713.59;4991493;28;20034;-78
2022/11/07 02:32:46;;;;;;;23.65;8.07;;;;;;;14.49;100.00;100721.44;4994430;28;20038;-76
2022/11/07 02:35:33;;;;;;;15.05;7.40;;;;;;;14.54;100.00;100738.00;5006847;28;20475;-76
2022/11/07 02:37:59;;;;;;;15.13;7.22;;;;;;;14.49;100.00;100730.13;5007479;28;20400;-75
2022/11/07 02:40:26;;;;;;;15.63;7.65;;;;;;;14.43;100.00;100723.88;5006833;28;20056;-74
2022/11/07 02:42:52;;;;;;;16.15;8.85;;;;;;;14.44;100.00;100723.91;5007153;28;20068;-74
2022/11/07 02:45:23;;;;;;;10.93;7.00;;;;;;;14.49;100.00;100737.03;5006108;28;20392;-74
2022/11/07 02:47:48;;;;;;;12.63;7.10;;;;;;;14.44;100.00;100730.84;5006770;28;20451;-74
2022/11/07 02:50:15;;;;;;;12.30;7.13;;;;;;;14.41;100.00;100723.84;5005849;28;20029;-74
2022/11/07 02:52:41;;;;;;;14.48;7.07;;;;;;;14.50;100.00;100736.19;5006858;28;20026;-74
2022/11/07 02:55:08;;;;;;;15.85;6.93;;;;;;;14.48;100.00;100730.97;5007061;28;20564;-74
2022/11/07 02:57:33;;;;;;;16.08;7.18;;;;;;;14.43;99.86;100740.38;5010040;28;20022;-74
2022/11/07 02:59:58;;;;;;;13.70;6.72;;;;;;;14.42;99.36;100736.00;5010048;28;20026;-74
2022/11/07 03:02:25;;;;;;;13.23;6.68;;;;;;;14.38;99.78;100729.84;5008852;28;20037;-74
2022/11/07 03:04:50;;;;;;;12.23;6.70;;;;;;;14.38;99.57;100727.25;5010140;28;20026;-74
2022/11/07 03:07:16;;;;;;;19.15;7.63;;;;;;;14.27;99.11;100726.09;5010215;28;20033;-74
2022/11/07 03:09:42;;;;;;;17.00;7.80;;;;;;;14.33;99.36;100733.16;5009997;28;20022;-74
2022/11/07 03:12:07;;;;;;;18.50;7.43;;;;;;;14.28;99.19;100733.06;5010094;28;20030;-75
2022/11/07 03:14:33;;;;;;;12.68;7.47;;;;;;;14.31;99.24;100737.44;5010019;28;20033;-75
2022/11/07 03:16:58;;;;;;;14.18;6.55;;;;;;;14.20;99.47;100737.16;5009940;28;20034;-74
2022/11/07 03:19:24;;;;;;;15.90;7.00;;;;;;;14.21;99.27;100746.72;5010161;28;20030;-74
2022/11/07 03:21:49;;;;;;;17.30;7.15;;;;;;;14.15;99.54;100738.75;5009821;28;20030;-74
2022/11/07 03:24:15;;;;;;;16.83;6.53;;;;;;;14.19;99.24;100750.97;5009928;28;20067;-74
2022/11/07 03:26:41;;;;;;;13.35;6.90;;;;;;;14.18;99.41;100747.50;5009893;28;20033;-74
2022/11/07 03:29:07;;;;;;;13.07;7.55;;;;;;;14.16;99.52;100745.72;5007122;28;20500;-74
2022/11/07 03:31:32;;;;;;;16.00;7.82;;;;;;;14.12;99.22;100752.53;5006727;28;20049;-74
2022/11/07 03:33:57;;;;;;;14.85;6.93;;;;;;;14.16;99.08;100759.56;5007176;28;20090;-73
2022/11/07 03:36:23;;;;;;;13.98;7.50;;;;;;;14.18;99.17;100765.69;5007236;28;20395;-73
2022/11/07 03:38:48;;;;;;;17.58;7.70;;;;;;;13.93;99.19;100720.00;5007095;28;20038;-73
2022/11/07 03:41:16;;;;;;;16.60;7.18;;;;;;;14.17;98.85;100757.88;5006985;28;20057;-73
2022/11/07 03:47:03;;;;;;;15.45;7.72;;;;;;;14.20;98.71;100774.38;5169034;23;20114;-73
2022/11/07 03:49:29;;;;;;;17.65;7.53;;;;;;;13.96;98.97;100738.25;5071654;28;20021;-73
2022/11/07 03:51:54;;;;;;;19.38;7.88;;;;;;;14.14;99.05;100774.22;5070401;28;20031;-73
2022/11/07 03:54:19;;;;;;;13.45;7.72;;;;;;;14.11;99.10;100762.91;5053659;28;20028;-73
2022/11/07 03:56:45;;;;;;;15.50;7.30;;;;;;;14.19;99.05;100774.34;5063471;28;20029;-72
2022/11/07 03:59:10;;;;;;;16.23;7.97;;;;;;;14.14;99.10;100775.94;5072715;28;20418;-73
2022/11/07 04:01:35;;;;;;;13.77;7.30;;;;;;;13.88;99.58;100737.16;5072473;28;20693;-73
2022/11/07 04:04:01;;;;;;;18.60;7.35;;;;;;;14.18;99.32;100781.28;5071257;28;20121;-73
2022/11/07 04:06:26;;;;;;;15.65;7.28;;;;;;;14.15;99.45;100775.13;5072634;28;20025;-73
2022/11/07 04:08:52;;;;;;;17.65;8.32;;;;;;;14.20;99.36;100781.31;5071243;28;20039;-74
2022/11/07 04:19:29;;;;;;;15.05;7.43;;;;;;;14.10;99.76;100772.38;5071829;28;20105;-73
2022/11/07 04:21:54;;;;;;;14.10;7.88;;;;;;;14.10;100.00;100771.50;5072334;28;20478;-72
2022/11/07 04:24:20;;;;;;;14.10;6.80;;;;;;;14.16;100.00;100776.88;5072184;28;20021;-72
2022/11/07 04:29:29;;;;;;;17.02;8.02;;;;;;;14.13;100.00;100769.00;5071843;28;20082;-73
2022/11/07 04:31:54;;;;;;;16.02;6.68;;;;;;;14.12;100.00;100768.13;5071569;28;20036;-73
2022/11/07 04:34:20;;;;;;;18.42;8.05;;;;;;;14.10;100.00;100763.72;5071612;28;20024;-73
2022/11/07 04:36:45;;;;;;;18.92;7.35;;;;;;;14.10;100.00;100771.50;5072085;28;20024;-72
2022/11/07 04:39:11;;;;;;;15.52;7.30;;;;;;;14.10;100.00;100761.13;5070624;28;20055;-73
2022/11/07 04:41:36;;;;;;;16.50;7.82;;;;;;;14.10;100.00;100771.50;5071647;28;20107;-72
2022/11/07 04:44:01;;;;;;;15.13;7.68;;;;;;;14.06;100.00;100770.53;5071909;28;20474;-73
2022/11/07 04:46:27;;;;;;;21.15;7.75;;;;;;;14.02;100.00;100776.50;5071091;28;20450;-72
2022/11/07 04:48:52;;;;;;;14.55;7.60;;;;;;;14.04;100.00;100774.81;5071449;28;20029;-72
2022/11/07 04:51:20;;;;;;;16.17;8.48;;;;;;;13.61;100.00;100701.84;5071626;28;20055;-72
2022/11/07 04:53:46;;;;;;;16.73;8.05;;;;;;;14.05;100.00;100774.84;5071324;28;20560;-71
2022/11/07 04:56:11;;;;;;;17.65;7.85;;;;;;;14.05;100.00;100774.84;5071465;28;20024;-73
2022/11/07 04:58:37;;;;;;;17.17;7.43;;;;;;;14.08;100.00;100780.13;5071214;28;20502;-72
2022/11/07 05:01:02;;;;;;;16.35;7.72;;;;;;;14.00;100.00;100772.97;5062146;28;20032;-73
2022/11/07 05:03:28;;;;;;;16.80;7.72;;;;;;;13.99;100.00;100779.00;5062622;28;20103;-73
2022/11/07 05:05:53;;;;;;;16.00;7.50;;;;;;;13.95;100.00;100780.63;5069706;28;20095;-73
2022/11/07 05:08:19;;;;;;;14.25;7.40;;;;;;;13.89;100.00;100775.25;5068803;28;20471;-73
2022/11/07 05:10:44;;;;;;;19.55;7.40;;;;;;;14.07;100.00;100786.16;5071092;28;20031;-72
2022/11/07 05:13:10;;;;;;;16.25;7.75;;;;;;;14.08;100.00;100800.91;5071198;28;20020;-73
2022/11/07 05:15:35;;;;;;;25.25;7.78;;;;;;;14.08;100.00;100795.72;5070598;28;20460;-74
2022/11/07 05:18:01;;;;;;;16.13;7.60;;;;;;;14.12;100.00;100799.28;5057691;28;20044;-73
2022/11/07 05:20:35;;;;;;;16.33;8.20;;;;;;;14.06;100.00;100797.38;5052980;28;20043;-74
2022/11/07 05:23:17;;;;;;;18.73;7.75;;;;;;;14.07;100.00;100804.34;5049915;28;20053;-74
2022/11/07 05:25:48;;;;;;;16.88;8.15;;;;;;;14.08;100.00;100802.59;5065430;28;20081;-75
2022/11/07 05:28:16;;;;;;;16.55;8.05;;;;;;;14.13;100.00;100813.13;5070044;28;20020;-75
2022/11/07 05:30:44;;;;;;;17.83;8.13;;;;;;;14.10;100.00;100813.91;5068946;28;20110;-74
2022/11/07 05:33:11;;;;;;;18.70;8.25;;;;;;;14.05;100.00;100800.81;5070370;28;20029;-75
2022/11/07 05:35:37;;;;;;;16.92;8.13;;;;;;;14.12;100.00;100820.03;5070479;28;20028;-74
2022/11/07 05:38:03;;;;;;;15.73;8.15;;;;;;;14.12;100.00;100808.75;5070540;28;20035;-75
2022/11/07 05:40:29;;;;;;;22.55;8.77;;;;;;;14.19;100.00;100824.59;5069809;28;20509;-75
2022/11/07 05:42:59;;;;;;;16.80;9.20;;;;;;;14.26;100.00;100828.22;5068933;28;20040;-74
2022/11/07 05:45:25;;;;;;;22.52;9.25;;;;;;;14.33;100.00;100845.72;5070298;28;20407;-74
2022/11/07 05:47:56;;;;;;;18.33;8.55;;;;;;;14.32;100.00;100846.56;5068433;28;20055;-74
2022/11/07 05:50:22;;;;;;;16.17;7.30;;;;;;;14.30;100.00;100843.03;5067142;28;20493;-75
2022/11/07 05:52:47;;;;;;;21.50;9.00;;;;;;;14.17;100.00;100813.25;5068786;28;20028;-74
2022/11/07 05:55:12;;;;;;;22.45;9.07;;;;;;;14.15;99.93;100809.72;5069544;28;20056;-74
2022/11/07 05:57:38;;;;;;;24.98;10.18;;;;;;;14.28;99.59;100831.75;5067800;28;20051;-74
2022/11/07 06:00:04;;;;;;;30.85;10.05;;;;;;;14.24;99.26;100835.97;5064631;28;20025;-74
2022/11/07 06:02:29;;;;;;;38.55;12.77;;;;;;;14.36;99.69;100863.13;5061821;28;20086;-76
2022/11/07 06:04:56;;;;;;;16.92;9.10;;;;;;;14.20;99.89;100846.22;5068665;28;20036;-72
2022/11/07 06:07:22;;;;;;;26.33;8.95;;;;;;;14.12;99.55;100833.03;5069637;28;20025;-74
2022/11/07 06:09:47;;;;;;;41.88;11.75;;;;;;;14.39;99.26;100887.47;5069072;28;20094;-72
2022/11/07 06:12:12;;;;;;;30.30;10.23;;;;;;;14.45;98.95;100885.88;5068171;28;20078;-73
2022/11/07 06:14:38;;;;;;;25.00;9.63;;;;;;;14.48;98.96;100888.53;5069817;28;20024;-72
2022/11/07 06:17:03;;;;;;;53.53;14.82;;;;;;;14.29;98.68;100867.25;5064425;28;20025;-72
2022/11/07 06:19:29;;;;;;;60.05;18.05;;;;;;;14.45;98.21;100893.66;5056552;28;20028;-72
2022/11/07 06:21:54;;;;;;;61.13;15.63;;;;;;;14.47;98.18;100899.78;5055635;28;20024;-73
2022/11/07 06:24:19;;;;;;;45.63;13.05;;;;;;;14.39;98.40;100894.34;5048936;28;20079;-73
2022/11/07 06:26:45;;;;;;;60.35;15.95;;;;;;;14.22;98.03;100866.19;5049163;28;20029;-73
2022/11/07 06:29:10;;;;;;;57.28;15.75;;;;;;;14.44;97.77;100913.53;5049146;28;20024;-72
2022/11/07 06:31:36;;;;;;;81.13;17.67;;;;;;;14.40;98.21;100928.19;5055706;28;20447;-72
2022/11/07 06:34:01;;;;;;;100.03;20.45;;;;;;;14.26;97.78;100890.53;5055193;28;20025;-72
2022/11/07 06:36:26;;;;;;;87.22;19.10;;;;;;;14.18;97.98;100877.34;5053286;28;20096;-73
2022/11/07 06:38:52;;;;;;;66.10;14.05;;;;;;;14.50;97.03;100923.25;5059974;28;20020;-75
2022/11/07 06:41:18;;;;;;;20.15;8.15;;;;;;;14.37;96.14;100906.44;5063325;28;20029;-71
2022/11/07 06:43:43;;;;;;;20.52;8.07;;;;;;;14.47;94.85;100924.03;5069669;28;20033;-74
2022/11/07 06:46:12;;;;;;;20.05;7.75;;;;;;;14.43;94.48;100903.13;5071744;28;20045;-74
2022/11/07 06:48:38;;;;;;;16.35;8.70;;;;;;;14.54;94.35;100928.56;5055990;28;20043;-74
2022/11/07 06:51:05;;;;;;;16.00;7.47;;;;;;;14.55;93.77;100937.25;5052739;28;20017;-74
2022/11/07 06:53:31;;;;;;;13.65;6.97;;;;;;;14.52;93.21;100937.16;5052038;28;20033;-74
2022/11/07 06:56:00;;;;;;;17.00;7.32;;;;;;;14.52;91.85;100932.84;5063768;28;20085;-74
2022/11/07 06:58:25;;;;;;;16.10;7.35;;;;;;;14.46;91.05;100930.06;5066724;28;20040;-74
2022/11/07 07:00:51;;;;;;;17.83;7.05;;;;;;;14.50;92.00;100936.22;5068850;28;20028;-75
2022/11/07 07:03:16;;;;;;;10.60;6.75;;;;;;;14.53;92.55;100936.34;5072476;28;20028;-74
2022/11/07 07:05:42;;;;;;;17.15;7.13;;;;;;;14.46;92.52;100942.19;5072505;28;20157;-74
2022/11/07 07:08:10;;;;;;;14.35;6.63;;;;;;;14.37;92.86;100922.03;5072002;28;20035;-74
2022/11/07 07:10:39;;;;;;;12.82;6.95;;;;;;;14.69;92.57;100946.34;5069363;28;20024;-73
2022/11/07 07:13:05;;;;;;;14.73;6.72;;;;;;;14.61;91.83;100884.56;5062859;28;20037;-74
2022/11/07 07:15:31;;;;;;;18.38;7.05;;;;;;;14.91;90.80;100905.31;5052025;28;20104;-74
2022/11/07 07:18:01;;;;;;;14.48;6.72;;;;;;;15.06;89.25;100898.78;5052293;28;20028;-73
2022/11/07 07:20:27;;;;;;;15.27;6.53;;;;;;;15.46;88.64;100933.56;5051412;28;20025;-73
2022/11/07 07:22:53;;;;;;;12.25;6.30;;;;;;;15.63;88.05;100941.78;5052476;28;20033;-73
2022/11/07 07:25:18;;;;;;;12.85;6.50;;;;;;;15.71;85.90;100942.84;5052490;28;20414;-74
2022/11/07 07:27:44;;;;;;;10.77;6.43;;;;;;;15.83;85.77;100942.28;5052155;28;20407;-74
2022/11/07 07:30:10;;;;;;;12.65;7.15;;;;;;;15.92;85.15;100941.63;5051798;28;20032;-73
2022/11/07 07:32:35;;;;;;;11.05;6.38;;;;;;;15.72;84.70;100897.75;5052279;28;20025;-72
2022/11/07 07:35:01;;;;;;;13.07;6.95;;;;;;;16.04;84.47;100944.50;5075134;28;20021;-74
2022/11/07 07:37:26;;;;;;;13.05;5.97;;;;;;;16.05;83.32;100940.16;5062692;28;20111;-72
2022/11/07 07:39:52;;;;;;;12.45;6.70;;;;;;;16.13;83.73;100942.09;5070387;28;20111;-73
2022/11/07 07:42:17;;;;;;;12.13;6.40;;;;;;;16.03;82.91;100902.81;5057224;28;20055;-72
2022/11/07 07:44:43;;;;;;;13.73;7.07;;;;;;;16.32;83.30;100956.41;5051660;28;20017;-73
2022/11/07 07:47:08;;;;;;;14.05;6.28;;;;;;;16.39;83.07;100951.31;5051554;28;20056;-73
2022/11/07 07:49:33;;;;;;;17.05;6.35;;;;;;;16.41;81.84;100949.59;5051931;28;20033;-72
2022/11/07 07:51:59;;;;;;;12.50;6.13;;;;;;;16.46;81.81;100951.47;5051691;28;20028;-72
2022/11/07 07:54:24;;;;;;;16.25;6.18;;;;;;;16.43;82.76;100953.13;5064713;28;20056;-73
2022/11/07 07:56:49;;;;;;;15.73;6.60;;;;;;;16.36;83.04;100953.84;5051207;28;20086;-73
2022/11/07 07:59:15;;;;;;;13.43;6.18;;;;;;;16.25;82.90;100958.81;5053063;28;20033;-74
2022/11/07 08:01:40;;;;;;;16.80;7.03;;;;;;;16.28;83.78;100964.13;5050564;28;20075;-73
2022/11/07 08:04:06;;;;;;;13.73;6.82;;;;;;;16.27;83.39;100954.53;5049998;28;21715;-75
2022/11/07 08:06:33;;;;;;;12.32;6.22;;;;;;;16.26;82.16;100938.03;5053443;28;20602;-73
2022/11/07 08:08:58;;;;;;;16.98;7.05;;;;;;;16.21;82.29;100913.59;5048920;28;20091;-74
2022/11/07 08:11:23;;;;;;;14.18;6.72;;;;;;;16.61;81.58;100956.13;5048862;28;20060;-74
2022/11/07 08:13:49;;;;;;;13.10;6.80;;;;;;;16.80;82.54;100959.94;5048917;28;20059;-74
2022/11/07 08:16:15;;;;;;;12.80;6.35;;;;;;;16.84;80.68;100954.81;5058506;28;20054;-73
2022/11/07 08:18:40;;;;;;;16.42;6.97;;;;;;;16.89;80.40;100961.84;5052579;28;20054;-74
2022/11/07 08:21:06;;;;;;;14.38;6.18;;;;;;;16.89;80.11;100956.63;5059585;28;20407;-73
2022/11/07 08:23:32;;;;;;;16.95;7.03;;;;;;;16.79;80.03;100933.84;5063764;28;20040;-73
2022/11/07 08:25:58;;;;;;;16.33;7.28;;;;;;;16.97;80.53;100962.94;5058940;28;20245;-73
2022/11/07 08:28:29;;;;;;;14.90;6.68;;;;;;;16.85;79.97;100957.44;5046715;28;20091;-73
2022/11/07 08:30:59;;;;;;;14.32;6.18;;;;;;;16.96;79.96;100963.78;5062092;28;20032;-73
2022/11/07 08:33:25;;;;;;;12.07;6.40;;;;;;;16.77;78.19;100959.00;5065850;28;20594;-74
2022/11/07 08:35:53;;;;;;;12.60;7.00;;;;;;;16.33;79.12;100921.66;5070420;28;20133;-74
2022/11/07 08:38:18;;;;;;;10.98;6.13;;;;;;;16.43;81.03;100929.69;5070841;28;20593;-73
2022/11/07 08:40:44;;;;;;;17.33;6.85;;;;;;;16.53;80.26;100926.41;5068907;28;20028;-73
2022/11/07 08:43:10;;;;;;;12.35;6.65;;;;;;;16.79;80.16;100960.78;5070554;28;20652;-73
2022/11/07 08:45:35;;;;;;;13.20;6.53;;;;;;;16.76;79.89;100963.34;5070486;28;20469;-73
2022/11/07 08:48:01;;;;;;;17.55;7.20;;;;;;;16.78;80.09;100966.84;5070143;28;20060;-73
2022/11/07 08:50:26;;;;;;;11.60;6.80;;;;;;;16.76;79.74;100970.28;5071119;28;20033;-73
2022/11/07 08:52:52;;;;;;;21.30;7.07;;;;;;;16.71;79.47;100969.31;5071091;28;20086;-73
2022/11/07 08:55:17;;;;;;;18.42;6.53;;;;;;;16.71;80.34;100957.19;5070546;28;20513;-73
2022/11/07 08:57:43;;;;;;;54.67;11.05;;;;;;;16.73;80.11;100959.81;5070764;28;20470;-73
2022/11/07 09:00:09;;;;;;;20.02;7.88;;;;;;;16.78;80.23;100959.03;5070617;28;20087;-74
2022/11/07 09:02:34;;;;;;;15.55;7.20;;;;;;;16.76;79.90;100949.44;5069104;28;20025;-74
2022/11/07 09:05:00;;;;;;;21.90;7.40;;;;;;;16.75;79.16;100947.69;5069837;28;20102;-75
2022/11/07 09:07:25;;;;;;;16.40;6.80;;;;;;;16.86;80.02;100956.59;5067699;28;20028;-74
2022/11/07 09:09:50;;;;;;;16.35;6.65;;;;;;;16.92;79.73;100951.53;5068611;28;20020;-74
2022/11/07 09:12:16;;;;;;;16.75;6.20;;;;;;;16.87;79.56;100947.03;5069176;28;20040;-74
2022/11/07 09:14:41;;;;;;;13.20;6.05;;;;;;;16.93;78.91;100948.03;5070187;28;20021;-73
2022/11/07 09:17:07;;;;;;;17.75;6.43;;;;;;;16.79;78.47;100928.63;5070351;28;20024;-74
2022/11/07 09:19:32;;;;;;;12.85;6.97;;;;;;;16.89;78.41;100946.22;5070280;28;20604;-73
2022/11/07 09:21:57;;;;;;;12.90;6.95;;;;;;;17.04;78.99;100960.44;5070247;28;20041;-73
2022/11/07 09:24:23;;;;;;;12.23;6.90;;;;;;;17.04;78.35;100945.66;5070662;28;20099;-73
2022/11/07 09:26:48;;;;;;;13.15;6.28;;;;;;;17.12;78.38;100958.81;5070292;28;20026;-73
2022/11/07 09:29:15;;;;;;;12.95;6.22;;;;;;;17.21;78.05;100955.50;5070277;28;20029;-74
2022/11/07 09:31:40;;;;;;;19.23;7.57;;;;;;;17.12;78.26;100940.56;5069793;28;20029;-73
2022/11/07 09:34:06;;;;;;;19.05;7.95;;;;;;;17.18;79.24;100961.53;5070201;28;20044;-74
2022/11/07 09:36:32;;;;;;;15.70;7.22;;;;;;;17.19;78.30;100957.22;5070296;28;20032;-74
2022/11/07 09:38:58;;;;;;;14.73;7.05;;;;;;;17.05;78.78;100952.63;5069142;28;20052;-74
2022/11/07 09:41:23;;;;;;;17.55;7.43;;;;;;;17.12;78.26;100961.44;5070345;28;20063;-73
2022/11/07 09:43:57;;;;;;;23.83;8.63;;;;;;;16.95;78.12;100922.88;5070562;28;20048;-74
2022/11/07 09:46:48;;;;;;;18.33;7.38;;;;;;;17.21;78.62;100959.00;5068346;28;20134;-74
2022/11/07 09:49:35;;;;;;;10.55;6.43;;;;;;;17.13;79.28;100958.88;5068990;28;20461;-73
2022/11/07 09:52:02;;;;;;;16.05;7.38;;;;;;;17.03;78.54;100950.84;5069793;28;20032;-74
2022/11/07 09:54:32;;;;;;;15.10;6.75;;;;;;;16.77;78.50;100899.03;5069036;28;20029;-74
2022/11/07 09:56:58;;;;;;;14.15;7.90;;;;;;;16.90;78.18;100897.56;5069208;28;20120;-74
2022/11/07 09:59:37;;;;;;;16.42;7.65;;;;;;;17.27;78.41;100956.50;5069731;28;20020;-73
2022/11/07 10:02:14;;;;;;;16.17;6.85;;;;;;;17.25;78.59;100945.13;5069962;28;20028;-74
2022/11/07 10:04:39;;;;;;;14.07;7.28;;;;;;;17.21;77.96;100943.34;5069894;28;20059;-74
2022/11/07 10:07:31;;;;;;;15.32;7.47;;;;;;;17.29;77.59;100936.50;5069656;28;20056;-72
2022/11/07 10:10:04;;;;;;;13.48;7.28;;;;;;;17.40;77.08;100939.31;5027269;28;20550;-73
2022/11/07 10:13:05;;;;;;;19.23;7.05;;;;;;;17.61;75.69;100943.13;5026934;28;20439;-72
2022/11/07 10:15:36;;;;;;;15.10;7.03;;;;;;;17.76;76.20;100934.66;5007417;28;20038;-73
2022/11/07 10:18:27;;;;;;;17.23;7.47;;;;;;;17.81;76.41;100935.59;5007310;28;21488;-74
2022/11/07 10:21:19;;;;;;;20.85;7.65;;;;;;;17.66;74.88;100894.47;5007157;28;20049;-73
2022/11/07 10:23:44;;;;;;;18.55;8.05;;;;;;;18.04;74.89;100924.59;4990958;28;20094;-72
2022/11/07 10:26:14;;;;;;;22.08;8.90;;;;;;;17.92;74.36;100886.13;5006079;28;20120;-73
2022/11/07 10:29:08;;;;;;;22.02;6.70;;;;;;;18.31;73.88;100921.47;5007335;28;20818;-73
2022/11/07 10:31:39;;;;;;;19.85;7.93;;;;;;;18.48;72.82;100928.63;4951968;28;20070;-73
2022/11/07 10:34:15;;;;;;;23.55;7.22;;;;;;;18.60;72.14;100918.31;4968568;28;20050;-74
2022/11/07 10:36:41;;;;;;;14.48;7.35;;;;;;;18.74;72.33;100914.13;4968644;28;20050;-74
2022/11/07 10:39:17;;;;;;;14.43;6.85;;;;;;;18.61;73.26;100869.53;4968327;28;20043;-74
2022/11/07 10:41:58;;;;;;;12.70;7.60;;;;;;;18.88;71.88;100903.78;4968325;28;20432;-72
2022/11/07 10:44:25;;;;;;;12.50;7.05;;;;;;;18.91;70.77;100902.97;4968489;28;20521;-72
2022/11/07 10:46:51;;;;;;;13.57;6.63;;;;;;;18.87;71.78;100896.81;4976749;28;20058;-72
2022/11/07 10:49:22;;;;;;;10.18;6.90;;;;;;;18.76;71.08;100849.59;4988126;28;20497;-74
2022/11/07 10:51:48;;;;;;;21.75;8.10;;;;;;;19.07;71.97;100899.63;5006533;28;20045;-75
2022/11/07 10:54:30;;;;;;;17.10;7.78;;;;;;;19.09;70.64;100897.06;5000854;28;20116;-73
2022/11/07 10:57:09;;;;;;;12.82;7.15;;;;;;;19.17;70.83;100903.22;5024969;28;20029;-72
2022/11/07 10:59:58;;;;;;;13.65;7.68;;;;;;;19.17;70.75;100900.59;5026933;28;20123;-74
2022/11/07 11:02:25;;;;;;;15.07;7.67;;;;;;;19.22;69.33;100898.03;5006551;28;20049;-74
2022/11/07 11:04:57;;;;;;;15.77;6.63;;;;;;;19.34;70.80;100892.88;5006385;28;20423;-75
2022/11/07 11:07:41;;;;;;;13.38;6.80;;;;;;;19.11;70.81;100887.47;5006969;28;20594;-76
2022/11/07 11:10:37;;;;;;;11.93;6.40;;;;;;;19.04;70.14;100890.88;5025971;28;20026;-74
2022/11/07 11:13:03;;;;;;;15.35;6.65;;;;;;;19.06;69.62;100883.94;5006187;28;20093;-74
2022/11/07 11:15:29;;;;;;;13.52;7.00;;;;;;;19.07;69.86;100877.84;5006572;28;20456;-74
2022/11/07 11:18:04;;;;;;;14.00;7.00;;;;;;;19.06;70.13;100874.31;4994678;28;20046;-74
2022/11/07 11:20:35;;;;;;;13.32;6.72;;;;;;;19.15;70.06;100870.94;4990271;28;20042;-74
2022/11/07 11:23:04;;;;;;;14.93;6.93;;;;;;;19.23;69.76;100884.94;4994691;28;20042;-73
2022/11/07 11:25:29;;;;;;;12.57;6.82;;;;;;;19.07;70.22;100872.59;5009742;28;20132;-74
2022/11/07 11:28:04;;;;;;;27.30;7.88;;;;;;;19.03;69.70;100869.09;5009819;28;20146;-74
2022/11/07 11:30:34;;;;;;;20.40;8.05;;;;;;;19.16;70.00;100875.28;5009537;28;20034;-75
2022/11/07 11:33:10;;;;;;;25.92;8.77;;;;;;;19.21;69.12;100857.88;5009500;28;20447;-74
2022/11/07 11:35:48;;;;;;;21.50;8.65;;;;;;;19.27;69.26;100864.91;5011979;28;20500;-74